sensor_id;sensor_type;location;lat;lon;timestamp;temperature;humidity
67182;DHT22;54114;53.524;49.396;2022-08-01T00:01:45;23.50;66.20
67182;DHT22;54114;53.524;49.396;2022-08-01T00:04:12;23.50;66.20
67182;DHT22;54114;53.524;49.396;2022-08-01T00:06:39;23.60;66.40
67182;DHT22;54114;53.524;49.396;2022-08-01T00:09:05;23.60;66.40
67182;DHT22;54114;53.524;49.396;2022-08-01T00:11:32;23.60;66.40
67182;DHT22;54114;53.524;49.396;2022-08-01T00:13:59;23.60;66.50
67182;DHT22;54114;53.524;49.396;2022-08-01T00:16:26;23.70;66.40
67182;DHT22;54114;53.524;49.396;2022-08-01T00:18:52;23.70;66.30
67182;DHT22;54114;53.524;49.396;2022-08-01T00:21:19;23.70;66.30
67182;DHT22;54114;53.524;49.396;2022-08-01T00:23:47;23.70;66.40
67182;DHT22;54114;53.524;49.396;2022-08-01T00:26:14;23.80;66.50
67182;DHT22;54114;53.524;49.396;2022-08-01T00:28:41;23.80;66.40
67182;DHT22;54114;53.524;49.396;2022-08-01T00:31:08;23.80;66.50
67182;DHT22;54114;53.524;49.396;2022-08-01T00:33:34;23.80;66.40
67182;DHT22;54114;53.524;49.396;2022-08-01T00:36:01;23.90;66.30
67182;DHT22;54114;53.524;49.396;2022-08-01T00:38:27;23.80;66.30
67182;DHT22;54114;53.524;49.396;2022-08-01T00:40:54;23.90;66.10
67182;DHT22;54114;53.524;49.396;2022-08-01T00:43:21;23.90;66.00
67182;DHT22;54114;53.524;49.396;2022-08-01T00:45:48;23.90;65.90
67182;DHT22;54114;53.524;49.396;2022-08-01T00:48:15;23.80;65.70
67182;DHT22;54114;53.524;49.396;2022-08-01T00:50:42;23.80;65.70
67182;DHT22;54114;53.524;49.396;2022-08-01T00:53:08;23.80;65.80
67182;DHT22;54114;53.524;49.396;2022-08-01T00:55:35;23.70;65.70
67182;DHT22;54114;53.524;49.396;2022-08-01T00:58:02;23.70;65.70
67182;DHT22;54114;53.524;49.396;2022-08-01T01:00:29;23.60;65.70
67182;DHT22;54114;53.524;49.396;2022-08-01T01:02:55;23.50;65.70
67182;DHT22;54114;53.524;49.396;2022-08-01T01:05:22;23.50;65.80
67182;DHT22;54114;53.524;49.396;2022-08-01T01:13:20;23.50;65.50
67182;DHT22;54114;53.524;49.396;2022-08-01T01:15:59;23.50;65.50
67182;DHT22;54114;53.524;49.396;2022-08-01T01:18:35;23.40;65.40
67182;DHT22;54114;53.524;49.396;2022-08-01T01:29:42;23.40;65.80
67182;DHT22;54114;53.524;49.396;2022-08-01T01:32:24;23.40;65.80
67182;DHT22;54114;53.524;49.396;2022-08-01T01:35:04;23.40;65.50
67182;DHT22;54114;53.524;49.396;2022-08-01T01:37:33;23.40;65.50
67182;DHT22;54114;53.524;49.396;2022-08-01T01:40:01;23.50;65.60
67182;DHT22;54114;53.524;49.396;2022-08-01T01:42:30;23.50;65.60
67182;DHT22;54114;53.524;49.396;2022-08-01T01:44:57;23.60;65.70
67182;DHT22;54114;53.524;49.396;2022-08-01T01:47:24;23.60;65.70
67182;DHT22;54114;53.524;49.396;2022-08-01T01:49:52;23.70;65.70
67182;DHT22;54114;53.524;49.396;2022-08-01T01:52:20;23.90;65.70
67182;DHT22;54114;53.524;49.396;2022-08-01T01:54:50;24.00;65.60
67182;DHT22;54114;53.524;49.396;2022-08-01T01:57:19;24.20;65.40
67182;DHT22;54114;53.524;49.396;2022-08-01T01:59:46;24.40;65.00
67182;DHT22;54114;53.524;49.396;2022-08-01T02:02:15;24.60;64.80
67182;DHT22;54114;53.524;49.396;2022-08-01T02:04:44;24.70;64.40
67182;DHT22;54114;53.524;49.396;2022-08-01T02:07:17;24.90;63.70
67182;DHT22;54114;53.524;49.396;2022-08-01T02:09:46;25.00;63.40
67182;DHT22;54114;53.524;49.396;2022-08-01T02:12:16;25.20;63.10
67182;DHT22;54114;53.524;49.396;2022-08-01T02:14:44;25.40;62.70
67182;DHT22;54114;53.524;49.396;2022-08-01T02:17:16;25.60;62.20
67182;DHT22;54114;53.524;49.396;2022-08-01T02:19:43;25.70;61.60
67182;DHT22;54114;53.524;49.396;2022-08-01T02:25:31;25.90;61.10
67182;DHT22;54114;53.524;49.396;2022-08-01T02:28:25;26.10;60.60
67182;DHT22;54114;53.524;49.396;2022-08-01T02:31:04;26.20;60.10
67182;DHT22;54114;53.524;49.396;2022-08-01T02:33:38;26.30;59.60
67182;DHT22;54114;53.524;49.396;2022-08-01T02:36:06;26.40;59.20
67182;DHT22;54114;53.524;49.396;2022-08-01T02:38:35;26.40;59.10
67182;DHT22;54114;53.524;49.396;2022-08-01T02:41:09;26.50;58.90
67182;DHT22;54114;53.524;49.396;2022-08-01T02:43:42;26.60;58.70
67182;DHT22;54114;53.524;49.396;2022-08-01T02:46:23;26.60;58.40
67182;DHT22;54114;53.524;49.396;2022-08-01T02:48:53;26.70;58.20
67182;DHT22;54114;53.524;49.396;2022-08-01T02:51:23;26.80;58.00
67182;DHT22;54114;53.524;49.396;2022-08-01T02:53:53;26.90;58.30
67182;DHT22;54114;53.524;49.396;2022-08-01T02:56:21;27.00;58.20
67182;DHT22;54114;53.524;49.396;2022-08-01T02:58:49;27.10;57.50
67182;DHT22;54114;53.524;49.396;2022-08-01T03:01:16;27.20;57.20
67182;DHT22;54114;53.524;49.396;2022-08-01T03:03:44;27.30;56.90
67182;DHT22;54114;53.524;49.396;2022-08-01T03:06:12;27.40;56.70
67182;DHT22;54114;53.524;49.396;2022-08-01T03:08:39;27.60;56.40
67182;DHT22;54114;53.524;49.396;2022-08-01T03:11:08;27.60;56.20
67182;DHT22;54114;53.524;49.396;2022-08-01T03:13:35;27.70;56.10
67182;DHT22;54114;53.524;49.396;2022-08-01T03:16:04;27.80;55.90
67182;DHT22;54114;53.524;49.396;2022-08-01T03:18:32;28.00;55.70
67182;DHT22;54114;53.524;49.396;2022-08-01T03:21:00;28.10;55.40
67182;DHT22;54114;53.524;49.396;2022-08-01T03:23:28;28.30;55.00
67182;DHT22;54114;53.524;49.396;2022-08-01T03:25:57;28.40;54.70
67182;DHT22;54114;53.524;49.396;2022-08-01T03:28:25;28.50;54.60
67182;DHT22;54114;53.524;49.396;2022-08-01T03:30:53;28.70;54.20
67182;DHT22;54114;53.524;49.396;2022-08-01T03:33:20;29.00;53.90
67182;DHT22;54114;53.524;49.396;2022-08-01T03:35:49;29.20;53.40
67182;DHT22;54114;53.524;49.396;2022-08-01T03:38:23;29.40;53.10
67182;DHT22;54114;53.524;49.396;2022-08-01T03:41:11;29.50;52.60
67182;DHT22;54114;53.524;49.396;2022-08-01T03:43:45;29.70;52.20
67182;DHT22;54114;53.524;49.396;2022-08-01T03:46:17;29.90;52.00
67182;DHT22;54114;53.524;49.396;2022-08-01T03:48:48;30.00;52.00
67182;DHT22;54114;53.524;49.396;2022-08-01T03:51:18;30.10;51.40
67182;DHT22;54114;53.524;49.396;2022-08-01T03:53:46;30.10;51.10
67182;DHT22;54114;53.524;49.396;2022-08-01T03:56:18;30.10;51.00
67182;DHT22;54114;53.524;49.396;2022-08-01T03:58:45;29.90;51.10
67182;DHT22;54114;53.524;49.396;2022-08-01T04:01:13;30.00;51.20
67182;DHT22;54114;53.524;49.396;2022-08-01T04:03:40;30.10;51.10
67182;DHT22;54114;53.524;49.396;2022-08-01T04:06:08;30.30;50.90
67182;DHT22;54114;53.524;49.396;2022-08-01T04:08:37;30.40;50.50
67182;DHT22;54114;53.524;49.396;2022-08-01T04:11:04;30.50;50.30
67182;DHT22;54114;53.524;49.396;2022-08-01T04:13:31;30.70;50.10
67182;DHT22;54114;53.524;49.396;2022-08-01T04:15:59;30.80;49.70
67182;DHT22;54114;53.524;49.396;2022-08-01T04:18:26;31.00;49.50
67182;DHT22;54114;53.524;49.396;2022-08-01T04:20:53;31.10;49.30
67182;DHT22;54114;53.524;49.396;2022-08-01T04:23:22;31.10;49.00
67182;DHT22;54114;53.524;49.396;2022-08-01T04:25:51;31.20;48.90
67182;DHT22;54114;53.524;49.396;2022-08-01T04:28:19;31.30;48.70
67182;DHT22;54114;53.524;49.396;2022-08-01T04:30:50;31.40;48.30
67182;DHT22;54114;53.524;49.396;2022-08-01T04:33:19;31.40;48.10
67182;DHT22;54114;53.524;49.396;2022-08-01T04:35:47;31.50;48.00
67182;DHT22;54114;53.524;49.396;2022-08-01T04:38:21;31.60;47.80
67182;DHT22;54114;53.524;49.396;2022-08-01T04:40:49;31.80;47.60
67182;DHT22;54114;53.524;49.396;2022-08-01T04:43:17;32.00;47.10
67182;DHT22;54114;53.524;49.396;2022-08-01T04:45:45;32.30;46.60
67182;DHT22;54114;53.524;49.396;2022-08-01T04:48:15;32.40;46.30
67182;DHT22;54114;53.524;49.396;2022-08-01T04:50:43;32.60;45.90
67182;DHT22;54114;53.524;49.396;2022-08-01T04:53:19;32.70;45.50
67182;DHT22;54114;53.524;49.396;2022-08-01T04:55:49;32.90;45.10
67182;DHT22;54114;53.524;49.396;2022-08-01T04:58:16;33.10;44.80
67182;DHT22;54114;53.524;49.396;2022-08-01T05:00:43;33.10;44.60
67182;DHT22;54114;53.524;49.396;2022-08-01T05:03:09;33.20;44.20
67182;DHT22;54114;53.524;49.396;2022-08-01T05:05:36;33.40;44.10
67182;DHT22;54114;53.524;49.396;2022-08-01T05:08:03;33.50;43.90
67182;DHT22;54114;53.524;49.396;2022-08-01T05:10:31;33.80;43.60
67182;DHT22;54114;53.524;49.396;2022-08-01T05:12:58;34.00;43.20
67182;DHT22;54114;53.524;49.396;2022-08-01T05:15:25;34.20;42.80
67182;DHT22;54114;53.524;49.396;2022-08-01T05:17:52;34.50;42.50
67182;DHT22;54114;53.524;49.396;2022-08-01T05:20:19;34.90;41.80
67182;DHT22;54114;53.524;49.396;2022-08-01T05:22:46;35.20;41.20
67182;DHT22;54114;53.524;49.396;2022-08-01T05:25:12;35.40;40.80
67182;DHT22;54114;53.524;49.396;2022-08-01T05:27:39;35.60;40.30
67182;DHT22;54114;53.524;49.396;2022-08-01T05:30:07;35.70;40.10
67182;DHT22;54114;53.524;49.396;2022-08-01T05:32:35;35.90;39.90
67182;DHT22;54114;53.524;49.396;2022-08-01T05:35:02;36.20;39.60
67182;DHT22;54114;53.524;49.396;2022-08-01T05:37:30;36.40;39.80
67182;DHT22;54114;53.524;49.396;2022-08-01T05:39:57;36.70;38.70
67182;DHT22;54114;53.524;49.396;2022-08-01T05:42:23;37.00;38.40
67182;DHT22;54114;53.524;49.396;2022-08-01T05:44:50;37.10;38.00
67182;DHT22;54114;53.524;49.396;2022-08-01T05:47:17;37.30;37.80
67182;DHT22;54114;53.524;49.396;2022-08-01T05:49:44;37.50;37.80
67182;DHT22;54114;53.524;49.396;2022-08-01T05:52:11;37.60;37.60
67182;DHT22;54114;53.524;49.396;2022-08-01T05:54:38;37.90;37.10
67182;DHT22;54114;53.524;49.396;2022-08-01T05:57:05;37.90;37.00
67182;DHT22;54114;53.524;49.396;2022-08-01T05:59:32;38.00;36.90
67182;DHT22;54114;53.524;49.396;2022-08-01T06:01:59;38.30;36.70
67182;DHT22;54114;53.524;49.396;2022-08-01T06:04:26;38.60;36.40
67182;DHT22;54114;53.524;49.396;2022-08-01T06:06:52;38.70;36.00
67182;DHT22;54114;53.524;49.396;2022-08-01T06:09:19;38.80;35.70
67182;DHT22;54114;53.524;49.396;2022-08-01T06:11:46;38.90;35.30
67182;DHT22;54114;53.524;49.396;2022-08-01T06:14:12;39.10;35.20
67182;DHT22;54114;53.524;49.396;2022-08-01T06:16:39;39.20;35.10
67182;DHT22;54114;53.524;49.396;2022-08-01T06:19:06;39.40;34.60
67182;DHT22;54114;53.524;49.396;2022-08-01T06:21:33;39.60;34.20
67182;DHT22;54114;53.524;49.396;2022-08-01T06:23:59;39.60;34.10
67182;DHT22;54114;53.524;49.396;2022-08-01T06:26:26;39.60;34.10
67182;DHT22;54114;53.524;49.396;2022-08-01T06:28:53;39.60;34.10
67182;DHT22;54114;53.524;49.396;2022-08-01T06:31:19;39.50;33.90
67182;DHT22;54114;53.524;49.396;2022-08-01T06:33:46;39.30;33.90
67182;DHT22;54114;53.524;49.396;2022-08-01T06:36:13;39.50;33.70
67182;DHT22;54114;53.524;49.396;2022-08-01T06:38:40;39.70;32.90
67182;DHT22;54114;53.524;49.396;2022-08-01T06:41:06;39.80;32.60
67182;DHT22;54114;53.524;49.396;2022-08-01T06:43:33;39.90;32.20
67182;DHT22;54114;53.524;49.396;2022-08-01T06:46:00;39.90;32.20
67182;DHT22;54114;53.524;49.396;2022-08-01T06:48:26;40.00;32.80
67182;DHT22;54114;53.524;49.396;2022-08-01T06:50:53;40.30;32.00
67182;DHT22;54114;53.524;49.396;2022-08-01T06:53:37;40.40;31.90
67182;DHT22;54114;53.524;49.396;2022-08-01T06:56:05;40.50;31.90
67182;DHT22;54114;53.524;49.396;2022-08-01T06:58:32;40.70;31.40
67182;DHT22;54114;53.524;49.396;2022-08-01T07:01:00;40.90;31.00
67182;DHT22;54114;53.524;49.396;2022-08-01T07:03:28;41.10;30.60
67182;DHT22;54114;53.524;49.396;2022-08-01T07:05:55;41.20;30.40
67182;DHT22;54114;53.524;49.396;2022-08-01T07:08:21;41.10;30.50
67182;DHT22;54114;53.524;49.396;2022-08-01T07:10:48;41.10;30.70
67182;DHT22;54114;53.524;49.396;2022-08-01T07:13:15;41.40;30.20
67182;DHT22;54114;53.524;49.396;2022-08-01T07:15:47;41.50;29.80
67182;DHT22;54114;53.524;49.396;2022-08-01T07:18:13;41.80;29.60
67182;DHT22;54114;53.524;49.396;2022-08-01T07:20:40;41.90;29.40
67182;DHT22;54114;53.524;49.396;2022-08-01T07:23:07;42.00;29.70
67182;DHT22;54114;53.524;49.396;2022-08-01T07:25:34;42.10;29.50
67182;DHT22;54114;53.524;49.396;2022-08-01T07:28:00;42.30;29.50
67182;DHT22;54114;53.524;49.396;2022-08-01T07:30:27;42.60;29.40
67182;DHT22;54114;53.524;49.396;2022-08-01T07:32:53;42.70;29.00
67182;DHT22;54114;53.524;49.396;2022-08-01T07:35:20;42.90;28.80
67182;DHT22;54114;53.524;49.396;2022-08-01T07:37:47;43.10;28.50
67182;DHT22;54114;53.524;49.396;2022-08-01T07:40:14;43.20;28.30
67182;DHT22;54114;53.524;49.396;2022-08-01T07:42:42;43.40;28.20
67182;DHT22;54114;53.524;49.396;2022-08-01T07:45:11;43.50;28.10
67182;DHT22;54114;53.524;49.396;2022-08-01T07:47:38;43.60;27.80
67182;DHT22;54114;53.524;49.396;2022-08-01T07:50:05;44.10;27.80
67182;DHT22;54114;53.524;49.396;2022-08-01T07:52:33;44.60;27.50
67182;DHT22;54114;53.524;49.396;2022-08-01T07:55:00;45.10;27.30
67182;DHT22;54114;53.524;49.396;2022-08-01T07:57:26;45.30;27.20
67182;DHT22;54114;53.524;49.396;2022-08-01T07:59:53;45.30;27.10
67182;DHT22;54114;53.524;49.396;2022-08-01T08:02:20;45.00;27.10
67182;DHT22;54114;53.524;49.396;2022-08-01T08:04:46;44.70;27.30
67182;DHT22;54114;53.524;49.396;2022-08-01T08:07:13;44.30;27.40
67182;DHT22;54114;53.524;49.396;2022-08-01T08:09:40;43.70;27.40
67182;DHT22;54114;53.524;49.396;2022-08-01T08:12:07;43.20;27.80
67182;DHT22;54114;53.524;49.396;2022-08-01T08:14:34;42.80;28.10
67182;DHT22;54114;53.524;49.396;2022-08-01T08:17:01;42.40;28.30
67182;DHT22;54114;53.524;49.396;2022-08-01T08:19:28;42.20;28.50
67182;DHT22;54114;53.524;49.396;2022-08-01T08:21:55;42.20;28.70
67182;DHT22;54114;53.524;49.396;2022-08-01T08:24:21;42.30;28.50
67182;DHT22;54114;53.524;49.396;2022-08-01T08:26:55;42.60;28.30
67182;DHT22;54114;53.524;49.396;2022-08-01T08:29:23;42.80;28.00
67182;DHT22;54114;53.524;49.396;2022-08-01T08:31:53;42.70;27.80
67182;DHT22;54114;53.524;49.396;2022-08-01T08:34:23;42.70;27.80
67182;DHT22;54114;53.524;49.396;2022-08-01T08:36:51;43.10;27.60
67182;DHT22;54114;53.524;49.396;2022-08-01T08:39:18;43.00;27.50
67182;DHT22;54114;53.524;49.396;2022-08-01T08:41:45;43.10;27.60
67182;DHT22;54114;53.524;49.396;2022-08-01T08:44:11;43.20;27.50
67182;DHT22;54114;53.524;49.396;2022-08-01T08:46:46;43.10;27.40
67182;DHT22;54114;53.524;49.396;2022-08-01T08:49:20;43.00;27.30
67182;DHT22;54114;53.524;49.396;2022-08-01T08:51:50;42.70;27.10
67182;DHT22;54114;53.524;49.396;2022-08-01T08:54:19;42.40;27.00
67182;DHT22;54114;53.524;49.396;2022-08-01T08:56:49;41.90;27.00
67182;DHT22;54114;53.524;49.396;2022-08-01T08:59:18;41.50;27.20
67182;DHT22;54114;53.524;49.396;2022-08-01T09:01:45;41.30;27.30
67182;DHT22;54114;53.524;49.396;2022-08-01T09:04:12;40.90;27.40
67182;DHT22;54114;53.524;49.396;2022-08-01T09:06:39;40.80;27.50
67182;DHT22;54114;53.524;49.396;2022-08-01T09:09:07;40.80;27.70
67182;DHT22;54114;53.524;49.396;2022-08-01T09:11:35;40.80;28.00
67182;DHT22;54114;53.524;49.396;2022-08-01T09:14:10;41.10;27.90
67182;DHT22;54114;53.524;49.396;2022-08-01T09:16:41;41.50;27.80
67182;DHT22;54114;53.524;49.396;2022-08-01T09:19:11;42.00;27.60
67182;DHT22;54114;53.524;49.396;2022-08-01T09:22:01;42.10;27.30
67182;DHT22;54114;53.524;49.396;2022-08-01T09:24:31;41.90;27.30
67182;DHT22;54114;53.524;49.396;2022-08-01T09:26:58;41.70;27.30
67182;DHT22;54114;53.524;49.396;2022-08-01T09:29:30;41.70;27.40
67182;DHT22;54114;53.524;49.396;2022-08-01T09:32:05;41.50;27.40
67182;DHT22;54114;53.524;49.396;2022-08-01T09:34:32;41.30;27.60
67182;DHT22;54114;53.524;49.396;2022-08-01T09:37:02;41.10;27.80
67182;DHT22;54114;53.524;49.396;2022-08-01T09:39:36;41.10;27.80
67182;DHT22;54114;53.524;49.396;2022-08-01T09:42:25;41.10;27.80
67182;DHT22;54114;53.524;49.396;2022-08-01T09:44:53;41.10;27.80
67182;DHT22;54114;53.524;49.396;2022-08-01T09:47:20;41.50;27.80
67182;DHT22;54114;53.524;49.396;2022-08-01T09:49:55;41.80;27.60
67182;DHT22;54114;53.524;49.396;2022-08-01T09:52:24;41.80;27.70
67182;DHT22;54114;53.524;49.396;2022-08-01T09:55:00;41.70;27.70
67182;DHT22;54114;53.524;49.396;2022-08-01T09:57:30;41.40;27.50
67182;DHT22;54114;53.524;49.396;2022-08-01T09:59:59;41.10;27.60
67182;DHT22;54114;53.524;49.396;2022-08-01T10:02:33;41.00;28.00
67182;DHT22;54114;53.524;49.396;2022-08-01T10:05:06;40.80;28.20
67182;DHT22;54114;53.524;49.396;2022-08-01T10:07:35;40.60;28.30
67182;DHT22;54114;53.524;49.396;2022-08-01T10:10:13;40.60;28.40
67182;DHT22;54114;53.524;49.396;2022-08-01T10:12:41;40.50;28.50
67182;DHT22;54114;53.524;49.396;2022-08-01T10:15:09;40.60;28.70
67182;DHT22;54114;53.524;49.396;2022-08-01T10:17:39;41.00;28.50
67182;DHT22;54114;53.524;49.396;2022-08-01T10:20:08;41.40;28.10
67182;DHT22;54114;53.524;49.396;2022-08-01T10:22:36;41.70;28.10
67182;DHT22;54114;53.524;49.396;2022-08-01T10:25:05;41.90;27.90
67182;DHT22;54114;53.524;49.396;2022-08-01T10:27:33;42.30;27.70
67182;DHT22;54114;53.524;49.396;2022-08-01T10:30:02;42.30;27.60
67182;DHT22;54114;53.524;49.396;2022-08-01T10:32:31;42.20;27.50
67182;DHT22;54114;53.524;49.396;2022-08-01T10:35:01;41.80;27.50
67182;DHT22;54114;53.524;49.396;2022-08-01T10:37:29;41.60;27.70
67182;DHT22;54114;53.524;49.396;2022-08-01T10:39:56;41.50;27.80
67182;DHT22;54114;53.524;49.396;2022-08-01T10:42:23;41.40;27.90
67182;DHT22;54114;53.524;49.396;2022-08-01T10:44:51;41.30;28.00
67182;DHT22;54114;53.524;49.396;2022-08-01T10:47:23;41.20;28.00
67182;DHT22;54114;53.524;49.396;2022-08-01T10:50:04;41.20;28.00
67182;DHT22;54114;53.524;49.396;2022-08-01T10:52:33;41.20;27.80
67182;DHT22;54114;53.524;49.396;2022-08-01T10:55:04;41.20;27.90
67182;DHT22;54114;53.524;49.396;2022-08-01T10:57:46;41.20;28.10
67182;DHT22;54114;53.524;49.396;2022-08-01T11:00:22;41.10;28.10
67182;DHT22;54114;53.524;49.396;2022-08-01T11:03:02;41.00;28.20
67182;DHT22;54114;53.524;49.396;2022-08-01T11:05:34;40.60;28.30
67182;DHT22;54114;53.524;49.396;2022-08-01T11:08:10;40.40;28.60
67182;DHT22;54114;53.524;49.396;2022-08-01T11:10:39;40.00;28.80
67182;DHT22;54114;53.524;49.396;2022-08-01T11:13:09;39.80;29.00
67182;DHT22;54114;53.524;49.396;2022-08-01T11:15:38;39.80;29.00
67182;DHT22;54114;53.524;49.396;2022-08-01T11:18:29;39.80;29.00
67182;DHT22;54114;53.524;49.396;2022-08-01T11:21:01;40.00;29.10
67182;DHT22;54114;53.524;49.396;2022-08-01T11:23:29;40.20;29.10
67182;DHT22;54114;53.524;49.396;2022-08-01T11:28:28;41.00;28.60
67182;DHT22;54114;53.524;49.396;2022-08-01T11:38:47;41.00;28.40
67182;DHT22;54114;53.524;49.396;2022-08-01T11:41:29;40.80;28.20
67182;DHT22;54114;53.524;49.396;2022-08-01T11:44:15;40.90;28.00
67182;DHT22;54114;53.524;49.396;2022-08-01T11:47:02;41.00;28.00
67182;DHT22;54114;53.524;49.396;2022-08-01T11:52:30;41.30;27.60
67182;DHT22;54114;53.524;49.396;2022-08-01T11:57:30;41.80;27.50
67182;DHT22;54114;53.524;49.396;2022-08-01T12:00:00;41.90;27.50
67182;DHT22;54114;53.524;49.396;2022-08-01T12:02:33;42.00;27.30
67182;DHT22;54114;53.524;49.396;2022-08-01T12:05:04;42.20;27.30
67182;DHT22;54114;53.524;49.396;2022-08-01T12:07:36;42.30;27.30
67182;DHT22;54114;53.524;49.396;2022-08-01T12:10:23;42.20;27.20
67182;DHT22;54114;53.524;49.396;2022-08-01T12:12:53;42.10;27.20
67182;DHT22;54114;53.524;49.396;2022-08-01T12:15:30;42.00;27.20
67182;DHT22;54114;53.524;49.396;2022-08-01T12:18:00;41.90;27.20
67182;DHT22;54114;53.524;49.396;2022-08-01T12:20:31;41.70;27.50
67182;DHT22;54114;53.524;49.396;2022-08-01T12:23:01;41.60;27.20
67182;DHT22;54114;53.524;49.396;2022-08-01T12:25:29;41.50;27.20
67182;DHT22;54114;53.524;49.396;2022-08-01T12:28:03;41.40;27.30
67182;DHT22;54114;53.524;49.396;2022-08-01T12:30:32;41.50;27.20
67182;DHT22;54114;53.524;49.396;2022-08-01T12:33:04;41.60;27.00
67182;DHT22;54114;53.524;49.396;2022-08-01T12:35:32;41.70;27.40
67182;DHT22;54114;53.524;49.396;2022-08-01T12:38:05;41.60;30.00
67182;DHT22;54114;53.524;49.396;2022-08-01T12:40:35;40.90;31.90
67182;DHT22;54114;53.524;49.396;2022-08-01T12:43:06;40.00;33.10
67182;DHT22;54114;53.524;49.396;2022-08-01T12:45:42;39.60;33.50
67182;DHT22;54114;53.524;49.396;2022-08-01T12:48:11;39.40;33.90
67182;DHT22;54114;53.524;49.396;2022-08-01T12:50:42;39.20;33.90
67182;DHT22;54114;53.524;49.396;2022-08-01T12:53:12;39.10;34.60
67182;DHT22;54114;53.524;49.396;2022-08-01T12:55:51;39.10;34.20
67182;DHT22;54114;53.524;49.396;2022-08-01T12:58:21;39.20;35.20
67182;DHT22;54114;53.524;49.396;2022-08-01T13:00:50;39.20;35.20
67182;DHT22;54114;53.524;49.396;2022-08-01T13:03:19;39.00;35.30
67182;DHT22;54114;53.524;49.396;2022-08-01T13:05:54;39.00;35.70
67182;DHT22;54114;53.524;49.396;2022-08-01T13:08:31;39.10;34.60
67182;DHT22;54114;53.524;49.396;2022-08-01T13:11:13;39.10;34.20
67182;DHT22;54114;53.524;49.396;2022-08-01T13:13:43;39.20;34.10
67182;DHT22;54114;53.524;49.396;2022-08-01T13:16:14;39.30;32.90
67182;DHT22;54114;53.524;49.396;2022-08-01T13:18:55;39.30;32.00
67182;DHT22;54114;53.524;49.396;2022-08-01T13:21:25;39.20;31.70
67182;DHT22;54114;53.524;49.396;2022-08-01T13:24:10;39.20;31.40
67182;DHT22;54114;53.524;49.396;2022-08-01T13:29:22;38.80;30.50
67182;DHT22;54114;53.524;49.396;2022-08-01T13:32:18;38.70;30.70
67182;DHT22;54114;53.524;49.396;2022-08-01T13:34:46;38.50;31.00
67182;DHT22;54114;53.524;49.396;2022-08-01T13:37:12;38.40;30.90
67182;DHT22;54114;53.524;49.396;2022-08-01T13:39:44;38.30;30.40
67182;DHT22;54114;53.524;49.396;2022-08-01T13:42:13;38.10;30.00
67182;DHT22;54114;53.524;49.396;2022-08-01T13:44:41;37.80;30.20
67182;DHT22;54114;53.524;49.396;2022-08-01T13:47:11;37.70;30.50
67182;DHT22;54114;53.524;49.396;2022-08-01T13:49:37;37.70;30.90
67182;DHT22;54114;53.524;49.396;2022-08-01T13:52:04;37.70;30.80
67182;DHT22;54114;53.524;49.396;2022-08-01T13:54:34;37.70;30.50
67182;DHT22;54114;53.524;49.396;2022-08-01T13:57:02;37.70;30.30
67182;DHT22;54114;53.524;49.396;2022-08-01T13:59:28;37.70;30.00
67182;DHT22;54114;53.524;49.396;2022-08-01T14:01:55;37.60;30.00
67182;DHT22;54114;53.524;49.396;2022-08-01T14:04:22;37.60;30.20
67182;DHT22;54114;53.524;49.396;2022-08-01T14:06:48;37.60;30.20
67182;DHT22;54114;53.524;49.396;2022-08-01T14:09:15;37.70;30.00
67182;DHT22;54114;53.524;49.396;2022-08-01T14:11:43;37.70;29.90
67182;DHT22;54114;53.524;49.396;2022-08-01T14:14:10;37.60;30.00
67182;DHT22;54114;53.524;49.396;2022-08-01T14:16:37;37.60;30.10
67182;DHT22;54114;53.524;49.396;2022-08-01T14:19:05;37.70;30.10
67182;DHT22;54114;53.524;49.396;2022-08-01T14:21:31;37.70;30.10
67182;DHT22;54114;53.524;49.396;2022-08-01T14:23:58;37.70;30.20
67182;DHT22;54114;53.524;49.396;2022-08-01T14:26:25;37.70;30.00
67182;DHT22;54114;53.524;49.396;2022-08-01T14:28:51;37.70;29.90
67182;DHT22;54114;53.524;49.396;2022-08-01T14:31:18;37.70;30.00
67182;DHT22;54114;53.524;49.396;2022-08-01T14:33:45;37.70;29.80
67182;DHT22;54114;53.524;49.396;2022-08-01T14:36:11;37.70;29.70
67182;DHT22;54114;53.524;49.396;2022-08-01T14:38:38;37.60;29.70
67182;DHT22;54114;53.524;49.396;2022-08-01T14:41:05;37.50;29.90
67182;DHT22;54114;53.524;49.396;2022-08-01T14:43:31;37.50;29.70
67182;DHT22;54114;53.524;49.396;2022-08-01T14:45:59;37.40;29.70
67182;DHT22;54114;53.524;49.396;2022-08-01T14:48:30;37.20;29.80
67182;DHT22;54114;53.524;49.396;2022-08-01T14:50:58;37.10;30.00
67182;DHT22;54114;53.524;49.396;2022-08-01T14:53:28;37.00;30.00
67182;DHT22;54114;53.524;49.396;2022-08-01T14:55:55;36.90;30.00
67182;DHT22;54114;53.524;49.396;2022-08-01T14:58:22;36.80;30.30
67182;DHT22;54114;53.524;49.396;2022-08-01T15:00:48;36.70;30.20
67182;DHT22;54114;53.524;49.396;2022-08-01T15:03:15;36.60;30.30
67182;DHT22;54114;53.524;49.396;2022-08-01T15:05:42;36.60;30.10
67182;DHT22;54114;53.524;49.396;2022-08-01T15:08:08;36.60;30.10
67182;DHT22;54114;53.524;49.396;2022-08-01T15:10:36;36.50;30.10
67182;DHT22;54114;53.524;49.396;2022-08-01T15:13:03;36.40;30.30
67182;DHT22;54114;53.524;49.396;2022-08-01T15:15:30;36.40;30.50
67182;DHT22;54114;53.524;49.396;2022-08-01T15:17:56;36.40;30.40
67182;DHT22;54114;53.524;49.396;2022-08-01T15:20:24;36.40;30.20
67182;DHT22;54114;53.524;49.396;2022-08-01T15:22:53;36.40;30.00
67182;DHT22;54114;53.524;49.396;2022-08-01T15:25:20;36.30;30.00
67182;DHT22;54114;53.524;49.396;2022-08-01T15:27:46;36.20;30.00
67182;DHT22;54114;53.524;49.396;2022-08-01T15:30:13;36.10;30.00
67182;DHT22;54114;53.524;49.396;2022-08-01T15:32:40;36.10;30.20
67182;DHT22;54114;53.524;49.396;2022-08-01T15:35:07;36.00;30.20
67182;DHT22;54114;53.524;49.396;2022-08-01T15:37:35;36.00;30.30
67182;DHT22;54114;53.524;49.396;2022-08-01T15:40:03;35.90;30.30
67182;DHT22;54114;53.524;49.396;2022-08-01T15:42:30;35.80;30.40
67182;DHT22;54114;53.524;49.396;2022-08-01T15:44:57;35.80;30.40
67182;DHT22;54114;53.524;49.396;2022-08-01T15:47:23;35.80;30.50
67182;DHT22;54114;53.524;49.396;2022-08-01T15:49:50;35.80;30.40
67182;DHT22;54114;53.524;49.396;2022-08-01T15:52:17;35.80;30.50
67182;DHT22;54114;53.524;49.396;2022-08-01T15:54:43;35.90;30.50
67182;DHT22;54114;53.524;49.396;2022-08-01T15:57:10;35.90;30.50
67182;DHT22;54114;53.524;49.396;2022-08-01T15:59:37;35.90;30.50
67182;DHT22;54114;53.524;49.396;2022-08-01T16:02:03;35.90;30.50
67182;DHT22;54114;53.524;49.396;2022-08-01T16:04:30;35.90;30.50